sensor_id;sensor_type;location;lat;lon;timestamp;P1;durP1;ratioP1;P2;durP2;ratioP2
9007;SDS011;62813;51.424;6.762;2023-04-01T00:01:15;7.17;;;3.03;;
9007;SDS011;62813;51.424;6.762;2023-04-01T00:03:43;7.70;;;2.60;;
9007;SDS011;62813;51.424;6.762;2023-04-01T00:06:14;7.03;;;2.17;;
9007;SDS011;62813;51.424;6.762;2023-04-01T00:08:43;5.33;;;1.80;;
9007;SDS011;62813;51.424;6.762;2023-04-01T00:11:11;8.37;;;1.80;;
9007;SDS011;62813;51.424;6.762;2023-04-01T00:13:37;7.50;;;1.90;;
9007;SDS011;62813;51.424;6.762;2023-04-01T00:16:04;6.50;;;1.37;;
9007;SDS011;62813;51.424;6.762;2023-04-01T00:18:45;3.97;;;1.33;;
9007;SDS011;62813;51.424;6.762;2023-04-01T00:21:14;3.00;;;1.30;;
9007;SDS011;62813;51.424;6.762;2023-04-01T00:23:42;4.13;;;1.33;;
9007;SDS011;62813;51.424;6.762;2023-04-01T00:26:08;3.07;;;1.03;;
9007;SDS011;62813;51.424;6.762;2023-04-01T00:28:35;3.53;;;1.40;;
9007;SDS011;62813;51.424;6.762;2023-04-01T00:31:09;4.27;;;1.60;;
9007;SDS011;62813;51.424;6.762;2023-04-01T00:33:37;4.27;;;2.00;;
9007;SDS011;62813;51.424;6.762;2023-04-01T00:36:11;5.30;;;1.90;;
9007;SDS011;62813;51.424;6.762;2023-04-01T00:38:40;6.03;;;1.80;;
9007;SDS011;62813;51.424;6.762;2023-04-01T00:41:09;7.70;;;2.77;;
9007;SDS011;62813;51.424;6.762;2023-04-01T00:43:41;5.50;;;2.90;;
9007;SDS011;62813;51.424;6.762;2023-04-01T00:46:15;4.70;;;2.33;;
9007;SDS011;62813;51.424;6.762;2023-04-01T00:48:43;7.23;;;2.87;;
9007;SDS011;62813;51.424;6.762;2023-04-01T00:51:15;8.07;;;4.87;;
9007;SDS011;62813;51.424;6.762;2023-04-01T00:53:46;6.83;;;3.80;;
9007;SDS011;62813;51.424;6.762;2023-04-01T00:56:37;10.27;;;3.97;;
9007;SDS011;62813;51.424;6.762;2023-04-01T01:01:53;8.27;;;4.93;;
9007;SDS011;62813;51.424;6.762;2023-04-01T01:04:25;6.27;;;3.40;;
9007;SDS011;62813;51.424;6.762;2023-04-01T01:07:02;9.37;;;2.70;;
9007;SDS011;62813;51.424;6.762;2023-04-01T01:12:39;3.93;;;2.40;;
9007;SDS011;62813;51.424;6.762;2023-04-01T01:38:04;6.93;;;2.37;;
9007;SDS011;62813;51.424;6.762;2023-04-01T01:40:41;3.87;;;2.10;;
9007;SDS011;62813;51.424;6.762;2023-04-01T01:43:12;4.47;;;2.37;;
9007;SDS011;62813;51.424;6.762;2023-04-01T01:45:44;6.80;;;2.80;;
9007;SDS011;62813;51.424;6.762;2023-04-01T01:48:15;4.60;;;2.63;;
9007;SDS011;62813;51.424;6.762;2023-04-01T01:50:44;5.37;;;2.20;;
9007;SDS011;62813;51.424;6.762;2023-04-01T01:53:13;4.00;;;2.10;;
9007;SDS011;62813;51.424;6.762;2023-04-01T01:55:41;4.43;;;1.80;;
9007;SDS011;62813;51.424;6.762;2023-04-01T01:58:11;7.27;;;2.20;;
9007;SDS011;62813;51.424;6.762;2023-04-01T02:00:44;4.13;;;2.37;;
9007;SDS011;62813;51.424;6.762;2023-04-01T02:03:16;5.07;;;1.70;;
9007;SDS011;62813;51.424;6.762;2023-04-01T02:05:44;6.30;;;2.40;;
9007;SDS011;62813;51.424;6.762;2023-04-01T02:08:18;4.27;;;2.40;;
9007;SDS011;62813;51.424;6.762;2023-04-01T02:11:02;4.27;;;1.93;;
9007;SDS011;62813;51.424;6.762;2023-04-01T02:14:06;2.97;;;1.50;;
9007;SDS011;62813;51.424;6.762;2023-04-01T02:16:34;2.00;;;0.80;;
9007;SDS011;62813;51.424;6.762;2023-04-01T02:19:05;1.30;;;1.00;;
9007;SDS011;62813;51.424;6.762;2023-04-01T02:21:36;2.20;;;0.93;;
9007;SDS011;62813;51.424;6.762;2023-04-01T02:24:07;3.10;;;1.27;;
9007;SDS011;62813;51.424;6.762;2023-04-01T02:26:38;2.87;;;0.80;;
9007;SDS011;62813;51.424;6.762;2023-04-01T02:29:06;4.87;;;0.90;;
9007;SDS011;62813;51.424;6.762;2023-04-01T02:31:36;4.40;;;1.10;;
9007;SDS011;62813;51.424;6.762;2023-04-01T02:34:04;2.90;;;0.90;;
9007;SDS011;62813;51.424;6.762;2023-04-01T02:36:31;5.07;;;0.90;;
9007;SDS011;62813;51.424;6.762;2023-04-01T02:38:58;2.47;;;1.10;;
9007;SDS011;62813;51.424;6.762;2023-04-01T02:41:28;3.10;;;0.83;;
9007;SDS011;62813;51.424;6.762;2023-04-01T02:43:55;4.10;;;1.30;;
9007;SDS011;62813;51.424;6.762;2023-04-01T02:46:25;2.87;;;1.23;;
9007;SDS011;62813;51.424;6.762;2023-04-01T02:48:51;4.67;;;1.50;;
9007;SDS011;62813;51.424;6.762;2023-04-01T02:51:18;3.90;;;1.80;;
9007;SDS011;62813;51.424;6.762;2023-04-01T02:53:45;4.87;;;2.07;;
9007;SDS011;62813;51.424;6.762;2023-04-01T02:56:11;4.10;;;1.77;;
9007;SDS011;62813;51.424;6.762;2023-04-01T02:58:38;3.10;;;1.70;;
9007;SDS011;62813;51.424;6.762;2023-04-01T03:01:07;4.03;;;2.17;;
9007;SDS011;62813;51.424;6.762;2023-04-01T03:03:34;3.43;;;1.80;;
9007;SDS011;62813;51.424;6.762;2023-04-01T03:06:05;2.80;;;1.70;;
9007;SDS011;62813;51.424;6.762;2023-04-01T03:08:33;2.90;;;1.70;;
9007;SDS011;62813;51.424;6.762;2023-04-01T03:11:00;3.70;;;1.93;;
9007;SDS011;62813;51.424;6.762;2023-04-01T03:13:26;4.17;;;2.20;;
9007;SDS011;62813;51.424;6.762;2023-04-01T03:15:53;3.73;;;2.20;;
9007;SDS011;62813;51.424;6.762;2023-04-01T03:18:20;4.87;;;2.90;;
9007;SDS011;62813;51.424;6.762;2023-04-01T03:20:47;4.73;;;2.40;;
9007;SDS011;62813;51.424;6.762;2023-04-01T03:23:14;3.93;;;1.80;;
9007;SDS011;62813;51.424;6.762;2023-04-01T03:25:43;2.23;;;1.13;;
9007;SDS011;62813;51.424;6.762;2023-04-01T03:28:12;3.73;;;1.20;;
9007;SDS011;62813;51.424;6.762;2023-04-01T03:30:41;1.40;;;0.90;;
9007;SDS011;62813;51.424;6.762;2023-04-01T03:33:08;2.07;;;1.00;;
9007;SDS011;62813;51.424;6.762;2023-04-01T03:35:35;1.87;;;0.90;;
9007;SDS011;62813;51.424;6.762;2023-04-01T03:38:02;2.53;;;0.80;;
9007;SDS011;62813;51.424;6.762;2023-04-01T03:40:29;1.70;;;0.97;;
9007;SDS011;62813;51.424;6.762;2023-04-01T03:42:55;1.70;;;0.90;;
9007;SDS011;62813;51.424;6.762;2023-04-01T03:45:22;1.50;;;0.80;;
9007;SDS011;62813;51.424;6.762;2023-04-01T03:47:49;2.43;;;0.93;;
9007;SDS011;62813;51.424;6.762;2023-04-01T03:50:15;1.93;;;1.10;;
9007;SDS011;62813;51.424;6.762;2023-04-01T03:52:42;2.17;;;1.20;;
9007;SDS011;62813;51.424;6.762;2023-04-01T03:55:11;1.83;;;0.90;;
9007;SDS011;62813;51.424;6.762;2023-04-01T03:57:38;3.03;;;1.00;;
9007;SDS011;62813;51.424;6.762;2023-04-01T04:00:05;1.27;;;0.97;;
9007;SDS011;62813;51.424;6.762;2023-04-01T04:02:32;2.10;;;1.17;;
9007;SDS011;62813;51.424;6.762;2023-04-01T04:04:59;3.00;;;1.10;;
9007;SDS011;62813;51.424;6.762;2023-04-01T04:07:25;2.30;;;0.97;;
9007;SDS011;62813;51.424;6.762;2023-04-01T04:09:52;3.20;;;1.10;;
9007;SDS011;62813;51.424;6.762;2023-04-01T04:12:19;1.10;;;0.90;;
9007;SDS011;62813;51.424;6.762;2023-04-01T04:14:45;1.70;;;0.90;;
9007;SDS011;62813;51.424;6.762;2023-04-01T04:17:12;1.77;;;1.00;;
9007;SDS011;62813;51.424;6.762;2023-04-01T04:19:42;2.60;;;1.07;;
9007;SDS011;62813;51.424;6.762;2023-04-01T04:22:09;1.73;;;0.80;;
9007;SDS011;62813;51.424;6.762;2023-04-01T04:24:36;2.40;;;0.80;;
9007;SDS011;62813;51.424;6.762;2023-04-01T04:27:04;1.40;;;1.00;;
9007;SDS011;62813;51.424;6.762;2023-04-01T04:29:31;3.43;;;1.00;;
9007;SDS011;62813;51.424;6.762;2023-04-01T04:31:57;2.40;;;0.90;;
9007;SDS011;62813;51.424;6.762;2023-04-01T04:34:24;4.13;;;1.30;;
9007;SDS011;62813;51.424;6.762;2023-04-01T04:36:51;1.53;;;1.07;;
9007;SDS011;62813;51.424;6.762;2023-04-01T04:39:17;1.80;;;1.10;;
9007;SDS011;62813;51.424;6.762;2023-04-01T04:41:44;2.57;;;1.30;;
9007;SDS011;62813;51.424;6.762;2023-04-01T04:44:11;1.63;;;1.33;;
9007;SDS011;62813;51.424;6.762;2023-04-01T04:46:38;3.47;;;1.60;;
9007;SDS011;62813;51.424;6.762;2023-04-01T04:49:05;2.40;;;1.63;;
9007;SDS011;62813;51.424;6.762;2023-04-01T04:51:33;2.83;;;1.70;;
9007;SDS011;62813;51.424;6.762;2023-04-01T04:54:02;3.67;;;1.40;;
9007;SDS011;62813;51.424;6.762;2023-04-01T04:56:29;1.33;;;1.23;;
9007;SDS011;62813;51.424;6.762;2023-04-01T04:58:57;1.70;;;1.60;;
9007;SDS011;62813;51.424;6.762;2023-04-01T05:01:24;2.90;;;1.40;;
9007;SDS011;62813;51.424;6.762;2023-04-01T05:03:51;2.10;;;1.20;;
9007;SDS011;62813;51.424;6.762;2023-04-01T05:06:19;1.63;;;1.53;;
9007;SDS011;62813;51.424;6.762;2023-04-01T05:08:48;1.73;;;1.40;;
9007;SDS011;62813;51.424;6.762;2023-04-01T05:11:18;2.13;;;1.60;;
9007;SDS011;62813;51.424;6.762;2023-04-01T05:13:46;2.60;;;1.60;;
9007;SDS011;62813;51.424;6.762;2023-04-01T05:16:14;2.73;;;1.63;;
9007;SDS011;62813;51.424;6.762;2023-04-01T05:18:42;3.03;;;1.83;;
9007;SDS011;62813;51.424;6.762;2023-04-01T05:21:10;1.70;;;1.60;;
9007;SDS011;62813;51.424;6.762;2023-04-01T05:23:38;2.17;;;1.80;;
9007;SDS011;62813;51.424;6.762;2023-04-01T05:26:06;2.80;;;2.17;;
9007;SDS011;62813;51.424;6.762;2023-04-01T05:28:34;2.63;;;2.27;;
9007;SDS011;62813;51.424;6.762;2023-04-01T05:31:02;3.00;;;2.70;;
9007;SDS011;62813;51.424;6.762;2023-04-01T05:33:29;2.90;;;2.60;;
9007;SDS011;62813;51.424;6.762;2023-04-01T05:36:04;4.67;;;2.47;;
9007;SDS011;62813;51.424;6.762;2023-04-01T05:38:32;3.27;;;2.67;;
9007;SDS011;62813;51.424;6.762;2023-04-01T05:41:01;3.00;;;2.70;;
9007;SDS011;62813;51.424;6.762;2023-04-01T05:43:29;2.80;;;2.60;;
9007;SDS011;62813;51.424;6.762;2023-04-01T05:45:56;4.27;;;3.00;;
9007;SDS011;62813;51.424;6.762;2023-04-01T05:48:24;3.30;;;2.73;;
9007;SDS011;62813;51.424;6.762;2023-04-01T05:50:51;3.03;;;2.73;;
9007;SDS011;62813;51.424;6.762;2023-04-01T05:53:17;3.57;;;3.27;;
9007;SDS011;62813;51.424;6.762;2023-04-01T05:55:44;3.87;;;3.40;;
9007;SDS011;62813;51.424;6.762;2023-04-01T05:58:11;4.50;;;4.00;;
9007;SDS011;62813;51.424;6.762;2023-04-01T06:00:38;4.00;;;3.70;;
9007;SDS011;62813;51.424;6.762;2023-04-01T06:03:04;4.03;;;3.63;;
9007;SDS011;62813;51.424;6.762;2023-04-01T06:05:36;4.33;;;3.43;;
9007;SDS011;62813;51.424;6.762;2023-04-01T06:08:16;4.10;;;3.60;;
9007;SDS011;62813;51.424;6.762;2023-04-01T06:16:16;5.93;;;4.10;;
9007;SDS011;62813;51.424;6.762;2023-04-01T06:18:46;5.83;;;4.33;;
9007;SDS011;62813;51.424;6.762;2023-04-01T06:30:39;5.03;;;4.53;;
9007;SDS011;62813;51.424;6.762;2023-04-01T06:44:07;6.33;;;4.87;;
9007;SDS011;62813;51.424;6.762;2023-04-01T06:52:26;5.23;;;4.40;;
9007;SDS011;62813;51.424;6.762;2023-04-01T06:57:56;4.07;;;3.50;;
9007;SDS011;62813;51.424;6.762;2023-04-01T07:00:27;4.27;;;3.73;;
9007;SDS011;62813;51.424;6.762;2023-04-01T07:05:35;9.63;;;3.70;;
9007;SDS011;62813;51.424;6.762;2023-04-01T07:08:03;4.83;;;2.73;;
9007;SDS011;62813;51.424;6.762;2023-04-01T07:10:40;6.60;;;3.47;;
9007;SDS011;62813;51.424;6.762;2023-04-01T07:13:14;5.00;;;2.73;;
9007;SDS011;62813;51.424;6.762;2023-04-01T07:16:08;6.83;;;3.30;;
9007;SDS011;62813;51.424;6.762;2023-04-01T07:18:50;2.60;;;2.40;;
9007;SDS011;62813;51.424;6.762;2023-04-01T07:21:29;6.13;;;2.93;;
9007;SDS011;62813;51.424;6.762;2023-04-01T07:24:05;19.53;;;4.20;;
9007;SDS011;62813;51.424;6.762;2023-04-01T07:26:38;9.10;;;3.20;;
9007;SDS011;62813;51.424;6.762;2023-04-01T07:29:08;3.10;;;2.60;;
9007;SDS011;62813;51.424;6.762;2023-04-01T07:31:41;3.40;;;2.57;;
9007;SDS011;62813;51.424;6.762;2023-04-01T07:34:12;3.73;;;2.73;;
9007;SDS011;62813;51.424;6.762;2023-04-01T07:37:05;5.23;;;2.70;;
9007;SDS011;62813;51.424;6.762;2023-04-01T07:42:16;3.07;;;2.70;;
9007;SDS011;62813;51.424;6.762;2023-04-01T07:50:28;3.10;;;2.80;;
9007;SDS011;62813;51.424;6.762;2023-04-01T07:53:04;3.00;;;2.70;;
9007;SDS011;62813;51.424;6.762;2023-04-01T08:04:12;4.20;;;3.80;;
9007;SDS011;62813;51.424;6.762;2023-04-01T08:06:53;4.40;;;4.00;;
9007;SDS011;62813;51.424;6.762;2023-04-01T08:18:08;4.07;;;3.73;;
9007;SDS011;62813;51.424;6.762;2023-04-01T08:23:24;4.00;;;3.57;;
9007;SDS011;62813;51.424;6.762;2023-04-01T08:33:52;3.53;;;3.20;;
9007;SDS011;62813;51.424;6.762;2023-04-01T08:36:22;4.20;;;3.90;;
9007;SDS011;62813;51.424;6.762;2023-04-01T08:39:03;3.80;;;3.50;;
9007;SDS011;62813;51.424;6.762;2023-04-01T08:44:30;3.87;;;3.47;;
9007;SDS011;62813;51.424;6.762;2023-04-01T09:03:47;3.73;;;3.40;;
9007;SDS011;62813;51.424;6.762;2023-04-01T09:20:31;5.53;;;5.03;;
9007;SDS011;62813;51.424;6.762;2023-04-01T09:23:17;6.23;;;5.47;;
9007;SDS011;62813;51.424;6.762;2023-04-01T09:34:35;6.47;;;5.87;;
9007;SDS011;62813;51.424;6.762;2023-04-01T09:42:49;7.37;;;6.63;;
9007;SDS011;62813;51.424;6.762;2023-04-01T10:02:25;8.57;;;7.73;;
9007;SDS011;62813;51.424;6.762;2023-04-01T10:31:02;10.97;;;7.73;;
9007;SDS011;62813;51.424;6.762;2023-04-01T10:36:56;12.30;;;8.40;;
9007;SDS011;62813;51.424;6.762;2023-04-01T10:59:08;10.63;;;9.13;;
9007;SDS011;62813;51.424;6.762;2023-04-01T11:02:00;10.73;;;8.90;;
9007;SDS011;62813;51.424;6.762;2023-04-01T11:19:39;13.23;;;10.27;;
9007;SDS011;62813;51.424;6.762;2023-04-01T11:22:36;14.13;;;10.73;;
9007;SDS011;62813;51.424;6.762;2023-04-01T11:45:23;13.07;;;11.67;;
9007;SDS011;62813;51.424;6.762;2023-04-01T11:48:15;13.03;;;11.23;;
9007;SDS011;62813;51.424;6.762;2023-04-01T12:04:36;11.83;;;9.00;;
9007;SDS011;62813;51.424;6.762;2023-04-01T12:07:34;9.43;;;8.43;;
9007;SDS011;62813;51.424;6.762;2023-04-01T12:12:51;9.27;;;8.10;;
9007;SDS011;62813;51.424;6.762;2023-04-01T12:21:27;10.00;;;7.20;;
9007;SDS011;62813;51.424;6.762;2023-04-01T12:24:12;7.83;;;7.03;;
9007;SDS011;62813;51.424;6.762;2023-04-01T12:40:45;7.83;;;6.90;;
9007;SDS011;62813;51.424;6.762;2023-04-01T12:43:26;9.83;;;7.30;;
9007;SDS011;62813;51.424;6.762;2023-04-01T12:48:48;9.10;;;7.10;;
9007;SDS011;62813;51.424;6.762;2023-04-01T12:54:29;8.57;;;7.30;;
9007;SDS011;62813;51.424;6.762;2023-04-01T13:00:23;8.80;;;7.83;;
9007;SDS011;62813;51.424;6.762;2023-04-01T13:08:55;7.73;;;6.90;;
9007;SDS011;62813;51.424;6.762;2023-04-01T13:34:38;9.47;;;6.60;;
9007;SDS011;62813;51.424;6.762;2023-04-01T14:03:19;8.20;;;7.40;;
9007;SDS011;62813;51.424;6.762;2023-04-01T14:06:27;7.93;;;7.13;;
9007;SDS011;62813;51.424;6.762;2023-04-01T14:09:09;8.13;;;7.33;;
9007;SDS011;62813;51.424;6.762;2023-04-01T14:11:56;10.30;;;7.37;;
9007;SDS011;62813;51.424;6.762;2023-04-01T14:17:58;9.10;;;7.37;;
9007;SDS011;62813;51.424;6.762;2023-04-01T14:23:12;8.37;;;7.50;;
9007;SDS011;62813;51.424;6.762;2023-04-01T14:25:58;10.37;;;7.13;;
9007;SDS011;62813;51.424;6.762;2023-04-01T14:40:05;6.90;;;6.20;;
9007;SDS011;62813;51.424;6.762;2023-04-01T14:51:10;6.10;;;5.50;;
9007;SDS011;62813;51.424;6.762;2023-04-01T14:56:43;6.33;;;5.73;;
9007;SDS011;62813;51.424;6.762;2023-04-01T14:59:17;6.30;;;5.70;;
9007;SDS011;62813;51.424;6.762;2023-04-01T15:04:47;6.33;;;5.73;;
9007;SDS011;62813;51.424;6.762;2023-04-01T15:12:53;8.13;;;6.03;;
9007;SDS011;62813;51.424;6.762;2023-04-01T15:21:31;5.67;;;5.13;;
9007;SDS011;62813;51.424;6.762;2023-04-01T15:24:07;6.07;;;5.47;;
9007;SDS011;62813;51.424;6.762;2023-04-01T15:32:19;6.17;;;4.77;;
9007;SDS011;62813;51.424;6.762;2023-04-01T15:40:33;6.40;;;4.20;;
9007;SDS011;62813;51.424;6.762;2023-04-01T15:54:27;5.03;;;4.50;;
9007;SDS011;62813;51.424;6.762;2023-04-01T16:00:05;5.83;;;5.13;;
9007;SDS011;62813;51.424;6.762;2023-04-01T16:11:37;5.10;;;4.07;;
9007;SDS011;62813;51.424;6.762;2023-04-01T16:14:31;6.97;;;4.77;;
9007;SDS011;62813;51.424;6.762;2023-04-01T16:17:11;4.57;;;4.07;;
9007;SDS011;62813;51.424;6.762;2023-04-01T16:22:40;4.40;;;4.00;;
9007;SDS011;62813;51.424;6.762;2023-04-01T16:25:26;4.13;;;3.77;;
9007;SDS011;62813;51.424;6.762;2023-04-01T16:28:05;5.47;;;4.73;;
9007;SDS011;62813;51.424;6.762;2023-04-01T16:30:58;5.20;;;4.40;;
9007;SDS011;62813;51.424;6.762;2023-04-01T16:39:06;7.37;;;5.37;;
9007;SDS011;62813;51.424;6.762;2023-04-01T16:41:49;9.07;;;6.60;;
9007;SDS011;62813;51.424;6.762;2023-04-01T16:44:24;9.70;;;7.13;;
9007;SDS011;62813;51.424;6.762;2023-04-01T16:46:53;11.33;;;7.53;;
9007;SDS011;62813;51.424;6.762;2023-04-01T16:50:12;7.10;;;6.40;;
9007;SDS011;62813;51.424;6.762;2023-04-01T16:55:20;7.30;;;6.43;;
9007;SDS011;62813;51.424;6.762;2023-04-01T16:57:51;7.03;;;6.33;;
9007;SDS011;62813;51.424;6.762;2023-04-01T17:00:30;6.90;;;6.30;;
9007;SDS011;62813;51.424;6.762;2023-04-01T17:03:12;7.70;;;6.90;;
9007;SDS011;62813;51.424;6.762;2023-04-01T17:05:48;7.83;;;6.90;;
9007;SDS011;62813;51.424;6.762;2023-04-01T17:11:31;7.53;;;6.80;;
9007;SDS011;62813;51.424;6.762;2023-04-01T17:16:43;9.03;;;7.50;;
9007;SDS011;62813;51.424;6.762;2023-04-01T17:25:12;10.77;;;7.77;;
9007;SDS011;62813;51.424;6.762;2023-04-01T17:30:39;9.07;;;8.17;;
9007;SDS011;62813;51.424;6.762;2023-04-01T17:33:31;9.37;;;8.30;;
9007;SDS011;62813;51.424;6.762;2023-04-01T17:36:21;8.30;;;7.50;;
9007;SDS011;62813;51.424;6.762;2023-04-01T17:39:05;9.73;;;8.73;;
9007;SDS011;62813;51.424;6.762;2023-04-01T17:41:46;8.60;;;7.73;;
9007;SDS011;62813;51.424;6.762;2023-04-01T17:47:18;8.73;;;7.93;;
9007;SDS011;62813;51.424;6.762;2023-04-01T17:52:57;8.00;;;7.20;;
9007;SDS011;62813;51.424;6.762;2023-04-01T17:58:17;8.80;;;7.60;;
9007;SDS011;62813;51.424;6.762;2023-04-01T18:06:36;10.37;;;7.97;;
9007;SDS011;62813;51.424;6.762;2023-04-01T18:14:50;9.43;;;8.53;;
9007;SDS011;62813;51.424;6.762;2023-04-01T18:25:44;9.13;;;8.23;;
9007;SDS011;62813;51.424;6.762;2023-04-01T18:28:17;9.90;;;8.90;;
9007;SDS011;62813;51.424;6.762;2023-04-01T18:30:53;9.23;;;8.33;;
9007;SDS011;62813;51.424;6.762;2023-04-01T18:33:32;11.20;;;9.40;;
9007;SDS011;62813;51.424;6.762;2023-04-01T18:39:02;12.80;;;10.43;;
9007;SDS011;62813;51.424;6.762;2023-04-01T18:58:36;9.70;;;8.80;;
9007;SDS011;62813;51.424;6.762;2023-04-01T19:01:16;10.13;;;9.13;;
9007;SDS011;62813;51.424;6.762;2023-04-01T19:06:41;10.20;;;9.20;;
9007;SDS011;62813;51.424;6.762;2023-04-01T19:12:11;9.50;;;8.60;;
9007;SDS011;62813;51.424;6.762;2023-04-01T19:15:20;9.47;;;8.67;;
9007;SDS011;62813;51.424;6.762;2023-04-01T19:20:42;11.07;;;9.97;;
9007;SDS011;62813;51.424;6.762;2023-04-01T19:23:34;9.83;;;8.63;;
9007;SDS011;62813;51.424;6.762;2023-04-01T19:29:06;7.50;;;6.63;;
9007;SDS011;62813;51.424;6.762;2023-04-01T19:39:56;4.20;;;3.10;;
9007;SDS011;62813;51.424;6.762;2023-04-01T20:07:13;3.03;;;2.70;;
9007;SDS011;62813;51.424;6.762;2023-04-01T20:13:06;2.67;;;2.47;;
9007;SDS011;62813;51.424;6.762;2023-04-01T20:15:43;2.53;;;2.33;;
9007;SDS011;62813;51.424;6.762;2023-04-01T20:18:16;5.70;;;2.70;;
9007;SDS011;62813;51.424;6.762;2023-04-01T20:20:57;2.80;;;2.43;;
9007;SDS011;62813;51.424;6.762;2023-04-01T20:23:50;3.37;;;2.97;;
9007;SDS011;62813;51.424;6.762;2023-04-01T20:26:30;3.50;;;3.20;;
9007;SDS011;62813;51.424;6.762;2023-04-01T20:32:05;3.60;;;2.83;;
9007;SDS011;62813;51.424;6.762;2023-04-01T20:37:50;3.53;;;3.20;;
9007;SDS011;62813;51.424;6.762;2023-04-01T20:40:40;3.80;;;3.50;;
9007;SDS011;62813;51.424;6.762;2023-04-01T20:46:22;3.83;;;3.53;;
9007;SDS011;62813;51.424;6.762;2023-04-01T20:51:31;3.17;;;2.97;;
9007;SDS011;62813;51.424;6.762;2023-04-01T20:59:57;3.00;;;2.80;;
9007;SDS011;62813;51.424;6.762;2023-04-01T21:05:11;2.93;;;2.20;;
9007;SDS011;62813;51.424;6.762;2023-04-01T21:10:57;2.73;;;2.50;;
9007;SDS011;62813;51.424;6.762;2023-04-01T21:16:37;2.50;;;2.30;;
9007;SDS011;62813;51.424;6.762;2023-04-01T21:19:20;2.70;;;2.50;;
9007;SDS011;62813;51.424;6.762;2023-04-01T21:39:26;2.40;;;2.20;;
9007;SDS011;62813;51.424;6.762;2023-04-01T21:42:26;2.30;;;2.10;;
9007;SDS011;62813;51.424;6.762;2023-04-01T21:50:00;3.57;;;2.13;;
9007;SDS011;62813;51.424;6.762;2023-04-01T22:13:23;4.10;;;2.83;;
9007;SDS011;62813;51.424;6.762;2023-04-01T22:18:45;3.10;;;2.90;;
9007;SDS011;62813;51.424;6.762;2023-04-01T22:21:32;3.30;;;3.00;;
9007;SDS011;62813;51.424;6.762;2023-04-01T22:27:18;3.67;;;3.30;;
9007;SDS011;62813;51.424;6.762;2023-04-01T22:29:59;3.40;;;3.10;;
9007;SDS011;62813;51.424;6.762;2023-04-01T22:43:10;3.97;;;3.60;;
9007;SDS011;62813;51.424;6.762;2023-04-01T22:45:45;4.23;;;3.90;;
9007;SDS011;62813;51.424;6.762;2023-04-01T22:48:27;4.20;;;3.90;;
9007;SDS011;62813;51.424;6.762;2023-04-01T22:51:22;3.57;;;3.27;;
9007;SDS011;62813;51.424;6.762;2023-04-01T22:56:52;4.60;;;3.97;;
9007;SDS011;62813;51.424;6.762;2023-04-01T22:59:37;4.90;;;4.40;;
9007;SDS011;62813;51.424;6.762;2023-04-01T23:02:13;3.50;;;3.20;;
9007;SDS011;62813;51.424;6.762;2023-04-01T23:04:47;3.40;;;3.20;;
9007;SDS011;62813;51.424;6.762;2023-04-01T23:10:18;2.90;;;2.53;;
9007;SDS011;62813;51.424;6.762;2023-04-01T23:13:10;2.90;;;2.70;;
9007;SDS011;62813;51.424;6.762;2023-04-01T23:15:45;3.33;;;3.03;;
9007;SDS011;62813;51.424;6.762;2023-04-01T23:18:20;3.33;;;3.03;;
9007;SDS011;62813;51.424;6.762;2023-04-01T23:26:45;3.37;;;3.07;;
9007;SDS011;62813;51.424;6.762;2023-04-01T23:29:21;4.23;;;3.83;;
9007;SDS011;62813;51.424;6.762;2023-04-01T23:34:30;3.90;;;3.60;;
9007;SDS011;62813;51.424;6.762;2023-04-01T23:37:00;4.00;;;3.67;;
9007;SDS011;62813;51.424;6.762;2023-04-01T23:39:40;3.70;;;3.40;;
9007;SDS011;62813;51.424;6.762;2023-04-01T23:42:14;3.40;;;3.10;;
9007;SDS011;62813;51.424;6.762;2023-04-01T23:44:42;3.27;;;3.03;;
9007;SDS011;62813;51.424;6.762;2023-04-01T23:47:12;3.47;;;3.17;;
9007;SDS011;62813;51.424;6.762;2023-04-01T23:49:45;3.60;;;3.30;;
9007;SDS011;62813;51.424;6.762;2023-04-01T23:52:35;3.63;;;3.33;;
9007;SDS011;62813;51.424;6.762;2023-04-01T23:55:25;3.97;;;3.03;;
9007;SDS011;62813;51.424;6.762;2023-04-01T23:58:12;3.17;;;2.87;;
